Time,TemperatureF,DewpointF,PressureIn,WindDirection,WindDirectionDegrees,WindSpeedMPH,WindSpeedGustMPH,Humidity,HourlyPrecipIn,Conditions,Clouds,dailyrainin,SoftwareType,DateUTC
2013-09-17 00:02:00,40.8,40.0,30.13,ENE,63,0.0,0.0,97,0.00,,,0.00,Wunderground v.1.15,2013-09-17 04:02:00,
2013-09-17 00:07:00,40.8,40.0,30.13,ENE,63,0.0,0.0,97,0.00,,,0.00,Wunderground v.1.15,2013-09-17 04:07:00,
2013-09-17 00:12:00,40.8,40.0,30.13,ENE,63,0.0,0.0,97,0.00,,,0.00,Wunderground v.1.15,2013-09-17 04:12:00,
2013-09-17 00:17:00,40.8,40.0,30.13,ENE,63,0.0,0.0,97,0.00,,,0.00,Wunderground v.1.15,2013-09-17 04:17:00,
2013-09-17 00:22:00,40.7,39.9,30.13,ENE,63,0.0,0.0,97,0.00,,,0.00,Wunderground v.1.15,2013-09-17 04:22:00,
2013-09-17 00:32:00,40.7,39.9,30.13,ENE,63,0.0,0.0,97,0.00,,,0.00,Wunderground v.1.15,2013-09-17 04:32:00,
2013-09-17 00:37:00,40.9,40.1,30.13,ENE,63,0.0,0.0,97,0.00,,,0.00,Wunderground v.1.15,2013-09-17 04:37:00,
2013-09-17 00:42:00,40.9,40.1,30.13,ENE,63,0.0,0.0,97,0.00,,,0.00,Wunderground v.1.15,2013-09-17 04:42:00,
2013-09-17 00:47:00,40.9,40.1,30.13,ENE,63,0.0,0.0,97,0.00,,,0.00,Wunderground v.1.15,2013-09-17 04:47:00,
2013-09-17 00:52:00,40.9,40.1,30.13,ENE,63,0.0,0.0,97,0.00,,,0.00,Wunderground v.1.15,2013-09-17 04:52:00,
2013-09-17 01:02:00,40.8,40.0,30.14,ENE,63,0.0,0.0,97,0.00,,,0.00,Wunderground v.1.15,2013-09-17 05:02:00,
2013-09-17 01:07:00,40.6,39.8,30.14,ENE,63,0.0,0.0,97,0.00,,,0.00,Wunderground v.1.15,2013-09-17 05:07:00,
2013-09-17 01:17:00,40.1,39.3,30.14,ENE,63,0.0,0.0,97,0.00,,,0.00,Wunderground v.1.15,2013-09-17 05:17:00,
2013-09-17 01:22:00,39.9,39.1,30.14,ENE,63,0.0,0.0,97,0.00,,,0.00,Wunderground v.1.15,2013-09-17 05:22:00,
2013-09-17 01:27:00,39.8,39.0,30.14,ENE,63,0.0,0.0,97,0.00,,,0.00,Wunderground v.1.15,2013-09-17 05:27:00,
2013-09-17 01:32:00,39.7,38.9,30.14,ENE,63,0.0,0.0,97,0.00,,,0.00,Wunderground v.1.15,2013-09-17 05:32:00,
2013-09-17 01:37:00,39.6,38.8,30.15,ENE,63,0.0,0.0,97,0.00,,,0.00,Wunderground v.1.15,2013-09-17 05:37:00,
2013-09-17 01:42:00,39.4,38.6,30.14,ENE,63,0.0,0.0,97,0.00,,,0.00,Wunderground v.1.15,2013-09-17 05:42:00,
2013-09-17 01:47:00,39.3,38.5,30.15,ENE,63,0.0,0.0,97,0.00,,,0.00,Wunderground v.1.15,2013-09-17 05:47:00,
2013-09-17 01:52:00,39.2,38.4,30.14,ENE,63,0.0,0.0,97,0.00,,,0.00,Wunderground v.1.15,2013-09-17 05:52:00,
2013-09-17 01:57:00,39.1,38.3,30.14,ENE,63,0.0,0.0,97,0.00,,,0.00,Wunderground v.1.15,2013-09-17 05:57:00,
2013-09-17 02:02:00,39.1,38.3,30.15,ENE,63,0.0,0.0,97,0.00,,,0.00,Wunderground v.1.15,2013-09-17 06:02:00,
2013-09-17 02:07:00,38.9,38.1,30.15,ENE,63,0.0,0.0,97,0.00,,,0.00,Wunderground v.1.15,2013-09-17 06:07:00,
2013-09-17 02:17:00,38.9,38.1,30.15,ENE,63,0.0,0.0,97,0.00,,,0.00,Wunderground v.1.15,2013-09-17 06:17:00,
2013-09-17 02:22:00,38.9,38.1,30.14,ENE,63,0.0,0.0,97,0.00,,,0.00,Wunderground v.1.15,2013-09-17 06:22:00,
2013-09-17 02:27:00,38.9,38.1,30.15,ENE,63,0.0,0.0,97,0.00,,,0.00,Wunderground v.1.15,2013-09-17 06:27:00,
2013-09-17 02:32:00,38.9,38.1,30.15,ENE,63,0.0,1.0,97,0.00,,,0.00,Wunderground v.1.15,2013-09-17 06:32:00,
2013-09-17 02:37:00,38.9,38.1,30.15,ENE,63,0.0,1.0,97,0.00,,,0.00,Wunderground v.1.15,2013-09-17 06:37:00,
2013-09-17 02:47:00,39.0,38.2,30.15,ENE,63,0.0,0.0,97,0.00,,,0.00,Wunderground v.1.15,2013-09-17 06:47:00,
2013-09-17 02:52:00,38.9,38.1,30.15,ENE,63,0.0,0.0,97,0.00,,,0.00,Wunderground v.1.15,2013-09-17 06:52:00,
2013-09-17 02:57:00,38.8,38.0,30.15,ENE,63,0.0,0.0,97,0.00,,,0.00,Wunderground v.1.15,2013-09-17 06:57:00,
2013-09-17 03:02:00,38.7,37.9,30.15,ENE,63,0.0,0.0,97,0.00,,,0.00,Wunderground v.1.15,2013-09-17 07:02:00,
2013-09-17 03:07:00,38.5,37.7,30.15,ENE,63,0.0,0.0,97,0.00,,,0.00,Wunderground v.1.15,2013-09-17 07:07:00,
2013-09-17 03:16:00,38.6,37.8,30.16,ENE,63,0.0,0.0,97,0.00,,,0.00,Wunderground v.1.15,2013-09-17 07:16:00,
2013-09-17 03:21:00,38.6,37.8,30.16,ENE,63,0.0,0.0,97,0.00,,,0.00,Wunderground v.1.15,2013-09-17 07:21:00,
2013-09-17 03:27:00,38.4,37.6,30.16,ENE,63,0.0,0.0,97,0.00,,,0.00,Wunderground v.1.15,2013-09-17 07:27:00,
2013-09-17 03:32:00,38.1,37.3,30.16,ENE,63,0.0,0.0,97,0.00,,,0.00,Wunderground v.1.15,2013-09-17 07:32:00,
2013-09-17 03:37:00,37.9,37.1,30.16,ENE,63,0.0,0.0,97,0.00,,,0.00,Wunderground v.1.15,2013-09-17 07:37:00,
2013-09-17 03:42:00,37.8,37.0,30.16,ENE,63,0.0,0.0,97,0.00,,,0.00,Wunderground v.1.15,2013-09-17 07:42:00,
2013-09-17 03:52:00,37.4,36.6,30.16,ENE,63,0.0,0.0,97,0.00,,,0.00,Wunderground v.1.15,2013-09-17 07:52:00,
2013-09-17 03:57:00,37.3,36.5,30.16,ENE,63,0.0,0.0,97,0.00,,,0.00,Wunderground v.1.15,2013-09-17 07:57:00,
2013-09-17 04:02:00,37.3,36.5,30.16,ENE,63,0.0,0.0,97,0.00,,,0.00,Wunderground v.1.15,2013-09-17 08:02:00,
2013-09-17 04:07:00,37.2,36.4,30.16,ENE,63,0.0,0.0,97,0.00,,,0.00,Wunderground v.1.15,2013-09-17 08:07:00,
2013-09-17 04:16:00,37.5,36.7,30.16,ENE,63,0.0,0.0,97,0.00,,,0.00,Wunderground v.1.15,2013-09-17 08:16:00,
2013-09-17 04:26:00,37.6,36.8,30.16,ENE,63,0.0,0.0,97,0.00,,,0.00,Wunderground v.1.15,2013-09-17 08:26:00,
2013-09-17 04:31:00,37.6,36.8,30.16,ENE,63,0.0,0.0,97,0.00,,,0.00,Wunderground v.1.15,2013-09-17 08:31:00,
2013-09-17 04:36:00,37.6,37.1,30.16,ENE,63,0.0,0.0,98,0.00,,,0.00,Wunderground v.1.15,2013-09-17 08:36:00,
2013-09-17 04:41:00,37.6,37.1,30.16,ENE,63,0.0,0.0,98,0.00,,,0.00,Wunderground v.1.15,2013-09-17 08:41:00,
2013-09-17 04:46:00,37.6,37.1,30.16,ENE,63,0.0,0.0,98,0.00,,,0.00,Wunderground v.1.15,2013-09-17 08:46:00,
2013-09-17 04:51:00,37.5,37.0,30.16,ENE,63,0.0,1.0,98,0.00,,,0.00,Wunderground v.1.15,2013-09-17 08:51:00,
2013-09-17 05:01:00,37.5,37.0,30.17,ENE,63,0.0,0.0,98,0.00,,,0.00,Wunderground v.1.15,2013-09-17 09:01:00,
2013-09-17 05:07:00,37.4,36.6,30.16,ENE,63,0.0,0.0,97,0.00,,,0.00,Wunderground v.1.15,2013-09-17 09:07:00,
2013-09-17 05:17:00,37.5,37.0,30.17,ENE,63,0.0,0.0,98,0.00,,,0.00,Wunderground v.1.15,2013-09-17 09:17:00,
2013-09-17 05:26:00,38.1,37.6,30.17,SSE,151,1.0,1.0,98,0.00,,,0.00,Wunderground v.1.15,2013-09-17 09:26:00,
2013-09-17 05:32:00,38.4,37.9,30.17,SSE,151,1.0,1.0,98,0.00,,,0.00,Wunderground v.1.15,2013-09-17 09:32:00,
2013-09-17 05:37:00,38.6,38.1,30.17,SSE,151,0.0,1.0,98,0.00,,,0.00,Wunderground v.1.15,2013-09-17 09:37:00,
2013-09-17 05:42:00,38.8,38.3,30.17,SSE,151,0.0,0.0,98,0.00,,,0.00,Wunderground v.1.15,2013-09-17 09:42:00,
2013-09-17 05:47:00,38.8,38.3,30.17,SSE,151,0.0,0.0,98,0.00,,,0.00,Wunderground v.1.15,2013-09-17 09:47:00,
2013-09-17 05:56:00,38.9,38.4,30.18,SSE,151,0.0,0.0,98,0.00,,,0.00,Wunderground v.1.15,2013-09-17 09:56:00,
2013-09-17 06:02:00,38.9,38.4,30.18,SSE,151,0.0,0.0,98,0.00,,,0.00,Wunderground v.1.15,2013-09-17 10:02:00,
2013-09-17 06:11:00,38.7,38.2,30.18,SSE,151,0.0,0.0,98,0.00,,,0.00,Wunderground v.1.15,2013-09-17 10:11:00,
2013-09-17 06:17:00,38.5,38.0,30.19,SSE,151,0.0,0.0,98,0.00,,,0.00,Wunderground v.1.15,2013-09-17 10:17:00,
2013-09-17 06:22:00,38.3,37.8,30.19,SSE,151,0.0,0.0,98,0.00,,,0.00,Wunderground v.1.15,2013-09-17 10:22:00,
2013-09-17 06:32:00,37.9,37.4,30.19,SSE,151,0.0,0.0,98,0.00,,,0.00,Wunderground v.1.15,2013-09-17 10:32:00,
2013-09-17 06:41:00,37.5,37.0,30.19,SSE,151,0.0,0.0,98,0.00,,,0.00,Wunderground v.1.15,2013-09-17 10:41:00,
2013-09-17 06:47:00,37.3,36.5,30.19,SSE,151,0.0,0.0,97,0.00,,,0.00,Wunderground v.1.15,2013-09-17 10:47:00,
2013-09-17 06:52:00,37.2,36.4,30.19,SSE,151,0.0,0.0,97,0.00,,,0.00,Wunderground v.1.15,2013-09-17 10:52:00,
2013-09-17 07:02:00,37.2,36.7,30.20,SSE,151,0.0,0.0,98,0.00,,,0.00,Wunderground v.1.15,2013-09-17 11:02:00,
2013-09-17 07:07:00,37.1,36.6,30.20,SSE,151,0.0,0.0,98,0.00,,,0.00,Wunderground v.1.15,2013-09-17 11:07:00,
2013-09-17 07:17:00,37.0,36.5,30.20,SSE,151,0.0,0.0,98,0.00,,,0.00,Wunderground v.1.15,2013-09-17 11:17:00,
2013-09-17 07:22:00,37.0,36.5,30.20,SSE,151,0.0,0.0,98,0.00,,,0.00,Wunderground v.1.15,2013-09-17 11:22:00,
2013-09-17 07:27:00,37.2,36.7,30.20,SSE,151,0.0,0.0,98,0.00,,,0.00,Wunderground v.1.15,2013-09-17 11:27:00,
2013-09-17 07:37:00,37.9,37.4,30.21,SSE,151,0.0,0.0,98,0.00,,,0.00,Wunderground v.1.15,2013-09-17 11:37:00,
2013-09-17 07:42:00,38.3,37.8,30.21,SSE,151,0.0,0.0,98,0.00,,,0.00,Wunderground v.1.15,2013-09-17 11:42:00,
2013-09-17 07:52:00,39.3,38.8,30.21,SSE,151,0.0,0.0,98,0.00,,,0.00,Wunderground v.1.15,2013-09-17 11:52:00,
2013-09-17 08:01:00,40.9,40.4,30.21,SSE,151,0.0,1.0,98,0.00,,,0.00,Wunderground v.1.15,2013-09-17 12:01:00,
2013-09-17 08:07:00,41.8,41.3,30.21,SSE,151,0.0,1.0,98,0.00,,,0.00,Wunderground v.1.15,2013-09-17 12:07:00,
2013-09-17 08:16:00,43.1,42.8,30.22,SSE,151,1.0,2.0,99,0.00,,,0.00,Wunderground v.1.15,2013-09-17 12:16:00,
2013-09-17 08:22:00,43.5,43.0,30.22,SSE,151,1.0,1.0,98,0.00,,,0.00,Wunderground v.1.15,2013-09-17 12:22:00,
2013-09-17 08:27:00,44.0,43.5,30.22,SSE,151,1.0,2.0,98,0.00,,,0.00,Wunderground v.1.15,2013-09-17 12:27:00,
2013-09-17 08:37:00,45.0,44.7,30.22,SSE,153,2.0,2.0,99,0.00,,,0.00,Wunderground v.1.15,2013-09-17 12:37:00,
2013-09-17 08:42:00,45.5,45.0,30.22,SSE,153,2.0,2.0,98,0.00,,,0.00,Wunderground v.1.15,2013-09-17 12:42:00,
2013-09-17 08:52:00,46.7,46.4,30.23,SSE,153,2.0,2.0,99,0.00,,,0.00,Wunderground v.1.15,2013-09-17 12:52:00,
2013-09-17 08:57:00,47.3,47.0,30.23,SW,222,2.0,2.0,99,0.00,,,0.00,Wunderground v.1.15,2013-09-17 12:57:00,
2013-09-17 09:07:00,48.4,48.1,30.23,SW,222,2.0,4.0,99,0.00,,,0.00,Wunderground v.1.15,2013-09-17 13:07:00,
2013-09-17 09:16:00,49.7,49.2,30.24,SSW,200,2.0,2.0,98,0.00,,,0.00,Wunderground v.1.15,2013-09-17 13:16:00,
2013-09-17 09:22:00,50.2,49.4,30.24,SW,222,2.0,3.0,97,0.00,,,0.00,Wunderground v.1.15,2013-09-17 13:22:00,
2013-09-17 09:27:00,50.7,48.7,30.24,SSW,192,3.0,3.0,93,0.00,,,0.00,Wunderground v.1.15,2013-09-17 13:27:00,
2013-09-17 09:32:00,51.5,48.1,30.24,South,173,3.0,3.0,88,0.00,,,0.00,Wunderground v.1.15,2013-09-17 13:32:00,
2013-09-17 09:42:00,52.5,46.5,30.24,SSW,201,3.0,5.0,80,0.00,,,0.00,Wunderground v.1.15,2013-09-17 13:42:00,
2013-09-17 09:52:00,53.2,46.2,30.24,SSW,213,3.0,3.0,77,0.00,,,0.00,Wunderground v.1.15,2013-09-17 13:52:00,
2013-09-17 09:57:00,53.5,46.1,30.24,SW,221,4.0,4.0,76,0.00,,,0.00,Wunderground v.1.15,2013-09-17 13:57:00,
2013-09-17 10:07:00,54.0,46.6,30.23,South,188,4.0,6.0,76,0.00,,,0.00,Wunderground v.1.15,2013-09-17 14:07:00,
2013-09-17 10:16:00,55.0,47.2,30.23,SSW,199,3.0,4.0,75,0.00,,,0.00,Wunderground v.1.15,2013-09-17 14:16:00,
2013-09-17 10:22:00,55.5,46.6,30.23,ESE,121,2.0,2.0,72,0.00,,,0.00,Wunderground v.1.15,2013-09-17 14:22:00,
2013-09-17 10:32:00,55.7,46.1,30.23,SSE,157,3.0,3.0,70,0.00,,,0.00,Wunderground v.1.15,2013-09-17 14:32:00,
2013-09-17 10:42:00,56.1,46.8,30.23,ESE,114,3.0,3.0,71,0.00,,,0.00,Wunderground v.1.15,2013-09-17 14:42:00,
2013-09-17 10:52:00,56.8,47.5,30.23,SSW,201,3.0,3.0,71,0.00,,,0.00,Wunderground v.1.15,2013-09-17 14:52:00,
2013-09-17 10:57:00,57.1,47.8,30.23,South,171,2.0,3.0,71,0.00,,,0.00,Wunderground v.1.15,2013-09-17 14:57:00,
2013-09-17 11:07:00,58.0,48.3,30.22,SE,145,2.0,2.0,70,0.00,,,0.00,Wunderground v.1.15,2013-09-17 15:07:00,
2013-09-17 11:17:00,58.6,48.1,30.22,SSW,201,2.0,4.0,68,0.00,,,0.00,Wunderground v.1.15,2013-09-17 15:17:00,
2013-09-17 11:22:00,58.9,48.0,30.22,SE,130,3.0,3.0,67,0.00,,,0.00,Wunderground v.1.15,2013-09-17 15:22:00,
2013-09-17 11:32:00,59.5,48.1,30.22,South,171,2.0,2.0,66,0.00,,,0.00,Wunderground v.1.15,2013-09-17 15:32:00,
2013-09-17 11:37:00,59.2,48.6,30.22,SE,146,2.0,2.0,68,0.00,,,0.00,Wunderground v.1.15,2013-09-17 15:37:00,
2013-09-17 11:47:00,59.6,48.2,30.21,South,178,3.0,3.0,66,0.00,,,0.00,Wunderground v.1.15,2013-09-17 15:47:00,
2013-09-17 11:52:00,59.8,50.0,30.21,SSE,149,3.0,3.0,70,0.00,,,0.00,Wunderground v.1.15,2013-09-17 15:52:00,
2013-09-17 12:02:00,60.2,48.4,30.21,ENE,67,3.0,3.0,65,0.00,,,0.00,Wunderground v.1.15,2013-09-17 16:02:00,
2013-09-17 12:07:00,60.3,49.3,30.21,SSW,207,2.0,4.0,67,0.00,,,0.00,Wunderground v.1.15,2013-09-17 16:07:00,
2013-09-17 12:17:00,60.4,48.6,30.20,SSW,198,4.0,4.0,65,0.00,,,0.00,Wunderground v.1.15,2013-09-17 16:17:00,
2013-09-17 12:27:00,60.5,47.8,30.21,SSE,150,3.0,3.0,63,0.00,,,0.00,Wunderground v.1.15,2013-09-17 16:27:00,
2013-09-17 12:32:00,60.4,47.7,30.20,ESE,111,3.0,3.0,63,0.00,,,0.00,Wunderground v.1.15,2013-09-17 16:32:00,
2013-09-17 12:42:00,60.8,48.1,30.20,SW,216,3.0,5.0,63,0.00,,,0.00,Wunderground v.1.15,2013-09-17 16:42:00,
2013-09-17 12:52:00,61.4,48.3,30.20,SE,144,3.0,3.0,62,0.00,,,0.00,Wunderground v.1.15,2013-09-17 16:52:00,
2013-09-17 13:02:00,62.0,49.7,30.19,SE,144,3.0,4.0,64,0.00,,,0.00,Wunderground v.1.15,2013-09-17 17:02:00,
2013-09-17 13:12:00,62.0,48.8,30.18,NE,46,3.0,6.0,62,0.00,,,0.00,Wunderground v.1.15,2013-09-17 17:12:00,
2013-09-17 13:22:00,62.3,49.5,30.18,SE,135,3.0,5.0,63,0.00,,,0.00,Wunderground v.1.15,2013-09-17 17:22:00,
2013-09-17 13:32:00,62.6,48.1,30.17,NNE,31,3.0,3.0,59,0.00,,,0.00,Wunderground v.1.15,2013-09-17 17:32:00,
2013-09-17 13:37:00,62.6,49.0,30.17,ESE,121,4.0,4.0,61,0.00,,,0.00,Wunderground v.1.15,2013-09-17 17:37:00,
2013-09-17 13:42:00,62.8,48.7,30.17,East,93,4.0,5.0,60,0.00,,,0.00,Wunderground v.1.15,2013-09-17 17:42:00,
2013-09-17 13:52:00,63.2,50.0,30.17,ESE,116,2.0,5.0,62,0.00,,,0.00,Wunderground v.1.15,2013-09-17 17:52:00,
2013-09-17 14:02:00,63.7,50.4,30.16,ESE,116,2.0,5.0,62,0.00,,,0.00,Wunderground v.1.15,2013-09-17 18:02:00,
2013-09-17 14:07:00,64.1,50.4,30.16,North,349,1.0,5.0,61,0.00,,,0.00,Wunderground v.1.15,2013-09-17 18:07:00,
2013-09-17 14:17:00,64.3,49.7,30.15,ESE,109,2.0,2.0,59,0.00,,,0.00,Wunderground v.1.15,2013-09-17 18:17:00,
2013-09-17 14:22:00,64.6,48.5,30.15,East,81,2.0,2.0,56,0.00,,,0.00,Wunderground v.1.15,2013-09-17 18:22:00,
2013-09-17 14:27:00,64.8,50.6,30.15,SW,215,2.0,3.0,60,0.00,,,0.00,Wunderground v.1.15,2013-09-17 18:27:00,
2013-09-17 14:37:00,65.3,50.1,30.15,NE,44,2.0,3.0,58,0.00,,,0.00,Wunderground v.1.15,2013-09-17 18:37:00,
2013-09-17 14:42:00,65.1,48.5,30.15,East,86,2.0,2.0,55,0.00,,,0.00,Wunderground v.1.15,2013-09-17 18:42:00,
2013-09-17 14:52:00,64.8,49.2,30.14,NE,35,2.0,2.0,57,0.00,,,0.00,Wunderground v.1.15,2013-09-17 18:52:00,
2013-09-17 15:02:00,65.2,48.1,30.13,ESE,121,3.0,3.0,54,0.00,,,0.00,Wunderground v.1.15,2013-09-17 19:02:00,
2013-09-17 15:07:00,65.6,49.0,30.13,East,81,2.0,3.0,55,0.00,,,0.00,Wunderground v.1.15,2013-09-17 19:07:00,
2013-09-17 15:17:00,66.1,48.5,30.13,ESE,111,2.0,2.0,53,0.00,,,0.00,Wunderground v.1.15,2013-09-17 19:17:00,
2013-09-17 15:22:00,66.3,48.1,30.12,SSW,193,2.0,2.0,52,0.00,,,0.00,Wunderground v.1.15,2013-09-17 19:22:00,
2013-09-17 15:32:00,66.4,48.7,30.12,ESE,109,2.0,2.0,53,0.00,,,0.00,Wunderground v.1.15,2013-09-17 19:32:00,
2013-09-17 15:42:00,66.4,47.7,30.11,ENE,77,3.0,3.0,51,0.00,,,0.00,Wunderground v.1.15,2013-09-17 19:42:00,
2013-09-17 15:47:00,66.5,47.8,30.11,SE,145,3.0,3.0,51,0.00,,,0.00,Wunderground v.1.15,2013-09-17 19:47:00,
2013-09-17 15:57:00,66.5,49.3,30.10,ESE,111,2.0,3.0,54,0.00,,,0.00,Wunderground v.1.15,2013-09-17 19:57:00,
2013-09-17 16:07:00,67.0,48.3,30.10,ESE,119,2.0,2.0,51,0.00,,,0.00,Wunderground v.1.15,2013-09-17 20:07:00,
2013-09-17 16:17:00,67.4,49.2,30.10,ESE,105,2.0,3.0,52,0.00,,,0.00,Wunderground v.1.15,2013-09-17 20:17:00,
2013-09-17 16:22:00,67.7,48.4,30.09,NE,40,2.0,2.0,50,0.00,,,0.00,Wunderground v.1.15,2013-09-17 20:22:00,
2013-09-17 16:32:00,67.4,48.1,30.09,ENE,74,3.0,3.0,50,0.00,,,0.00,Wunderground v.1.15,2013-09-17 20:32:00,
2013-09-17 16:37:00,67.6,47.2,30.09,SE,136,2.0,3.0,48,0.00,,,0.00,Wunderground v.1.15,2013-09-17 20:37:00,
2013-09-17 16:47:00,67.2,51.4,30.09,ENE,60,2.0,4.0,57,0.00,,,0.00,Wunderground v.1.15,2013-09-17 20:47:00,
2013-09-17 16:57:00,67.0,51.3,30.08,ENE,62,2.0,3.0,57,0.00,,,0.00,Wunderground v.1.15,2013-09-17 20:57:00,
2013-09-17 17:07:00,65.6,51.3,30.08,ESE,105,3.0,4.0,60,0.00,,,0.00,Wunderground v.1.15,2013-09-17 21:07:00,
2013-09-17 17:17:00,64.3,51.0,30.08,East,92,4.0,4.0,62,0.00,,,0.00,Wunderground v.1.15,2013-09-17 21:17:00,
2013-09-17 17:22:00,64.0,51.6,30.08,ENE,66,4.0,4.0,64,0.00,,,0.00,Wunderground v.1.15,2013-09-17 21:22:00,
2013-09-17 17:32:00,64.1,52.1,30.08,ENE,67,2.0,2.0,65,0.00,,,0.00,Wunderground v.1.15,2013-09-17 21:32:00,
2013-09-17 17:42:00,63.5,51.1,30.08,East,82,3.0,3.0,64,0.00,,,0.00,Wunderground v.1.15,2013-09-17 21:42:00,
2013-09-17 17:47:00,63.4,51.0,30.08,East,99,3.0,3.0,64,0.00,,,0.00,Wunderground v.1.15,2013-09-17 21:47:00,
2013-09-17 17:57:00,62.9,51.0,30.07,NE,49,3.0,4.0,65,0.00,,,0.00,Wunderground v.1.15,2013-09-17 21:57:00,
2013-09-17 18:02:00,62.6,51.1,30.07,NNE,32,3.0,3.0,66,0.00,,,0.00,Wunderground v.1.15,2013-09-17 22:02:00,
2013-09-17 18:07:00,62.2,50.7,30.07,East,88,2.0,3.0,66,0.00,,,0.00,Wunderground v.1.15,2013-09-17 22:07:00,
2013-09-17 18:16:00,61.5,50.4,30.07,ENE,67,3.0,5.0,67,0.00,,,0.00,Wunderground v.1.15,2013-09-17 22:16:00,
2013-09-17 18:22:00,61.0,50.4,30.07,ENE,76,2.0,2.0,68,0.00,,,0.00,Wunderground v.1.15,2013-09-17 22:22:00,
2013-09-17 18:27:00,60.5,50.3,30.07,ENE,62,2.0,2.0,69,0.00,,,0.00,Wunderground v.1.15,2013-09-17 22:27:00,
2013-09-17 18:37:00,59.5,49.7,30.06,ENE,63,2.0,3.0,70,0.00,,,0.00,Wunderground v.1.15,2013-09-17 22:37:00,
2013-09-17 18:42:00,59.1,50.1,30.06,East,91,2.0,2.0,72,0.00,,,0.00,Wunderground v.1.15,2013-09-17 22:42:00,
2013-09-17 18:52:00,58.3,49.7,30.06,East,98,1.0,1.0,73,0.00,,,0.00,Wunderground v.1.15,2013-09-17 22:52:00,
2013-09-17 19:02:00,57.6,49.7,30.06,East,81,1.0,1.0,75,0.00,,,0.00,Wunderground v.1.15,2013-09-17 23:02:00,
2013-09-17 19:07:00,57.2,49.7,30.06,East,81,1.0,2.0,76,0.00,,,0.00,Wunderground v.1.15,2013-09-17 23:07:00,
2013-09-17 19:16:00,56.4,49.3,30.05,ESE,107,1.0,2.0,77,0.00,,,0.00,Wunderground v.1.15,2013-09-17 23:16:00,
2013-09-17 19:21:00,56.0,49.2,30.05,ESE,107,0.0,1.0,78,0.00,,,0.00,Wunderground v.1.15,2013-09-17 23:21:00,
2013-09-17 19:27:00,55.6,49.2,30.05,ESE,107,0.0,1.0,79,0.00,,,0.00,Wunderground v.1.15,2013-09-17 23:27:00,
2013-09-17 19:37:00,54.8,49.1,30.05,ESE,107,0.0,1.0,81,0.00,,,0.00,Wunderground v.1.15,2013-09-17 23:37:00,
2013-09-17 19:42:00,54.3,48.9,30.05,East,82,0.0,1.0,82,0.00,,,0.00,Wunderground v.1.15,2013-09-17 23:42:00,
2013-09-17 19:52:00,53.6,48.6,30.05,East,101,1.0,1.0,83,0.00,,,0.00,Wunderground v.1.15,2013-09-17 23:52:00,
2013-09-17 20:02:00,53.1,48.7,30.05,ESE,117,1.0,1.0,85,0.00,,,0.00,Wunderground v.1.15,2013-09-18 00:02:00,
2013-09-17 20:07:00,52.8,48.4,30.05,ESE,117,1.0,1.0,85,0.00,,,0.00,Wunderground v.1.15,2013-09-18 00:07:00,
2013-09-17 20:17:00,52.3,48.2,30.05,ESE,117,0.0,1.0,86,0.00,,,0.00,Wunderground v.1.15,2013-09-18 00:17:00,
2013-09-17 20:27:00,51.9,48.2,30.05,ESE,117,0.0,0.0,87,0.00,,,0.00,Wunderground v.1.15,2013-09-18 00:27:00,
2013-09-17 20:32:00,51.6,48.2,30.05,ESE,117,0.0,0.0,88,0.00,,,0.00,Wunderground v.1.15,2013-09-18 00:32:00,
2013-09-17 20:42:00,51.1,47.7,30.05,ESE,117,0.0,0.0,88,0.00,,,0.00,Wunderground v.1.15,2013-09-18 00:42:00,
2013-09-17 20:52:00,50.5,47.4,30.05,ESE,117,0.0,0.0,89,0.00,,,0.00,Wunderground v.1.15,2013-09-18 00:52:00,
2013-09-17 21:02:00,49.7,46.6,30.05,ESE,117,0.0,0.0,89,0.00,,,0.00,Wunderground v.1.15,2013-09-18 01:02:00,
2013-09-17 21:07:00,49.2,46.4,30.05,ESE,117,0.0,0.0,90,0.00,,,0.00,Wunderground v.1.15,2013-09-18 01:07:00,
2013-09-17 21:17:00,48.6,46.1,30.05,ESE,117,0.0,0.0,91,0.00,,,0.00,Wunderground v.1.15,2013-09-18 01:17:00,
2013-09-17 21:27:00,48.1,45.6,30.04,ESE,117,0.0,0.0,91,0.00,,,0.00,Wunderground v.1.15,2013-09-18 01:27:00,
2013-09-17 21:32:00,47.9,45.7,30.04,ESE,117,0.0,0.0,92,0.00,,,0.00,Wunderground v.1.15,2013-09-18 01:32:00,
2013-09-17 21:42:00,47.3,45.1,30.04,ESE,117,0.0,0.0,92,0.00,,,0.00,Wunderground v.1.15,2013-09-18 01:42:00,
2013-09-17 21:52:00,46.7,44.5,30.04,ESE,117,0.0,0.0,92,0.00,,,0.00,Wunderground v.1.15,2013-09-18 01:52:00,
2013-09-17 21:57:00,46.4,44.2,30.04,ESE,117,0.0,0.0,92,0.00,,,0.00,Wunderground v.1.15,2013-09-18 01:57:00,
2013-09-17 22:07:00,45.8,43.6,30.04,ESE,117,0.0,0.0,92,0.00,,,0.00,Wunderground v.1.15,2013-09-18 02:07:00,
2013-09-17 22:17:00,45.2,43.0,30.04,ESE,117,0.0,0.0,92,0.00,,,0.00,Wunderground v.1.15,2013-09-18 02:17:00,
2013-09-17 22:22:00,45.0,42.8,30.04,ESE,117,0.0,0.0,92,0.00,,,0.00,Wunderground v.1.15,2013-09-18 02:22:00,
2013-09-17 22:32:00,44.5,42.6,30.04,ESE,117,0.0,0.0,93,0.00,,,0.00,Wunderground v.1.15,2013-09-18 02:32:00,
2013-09-17 22:37:00,44.5,42.6,30.04,ESE,117,0.0,0.0,93,0.00,,,0.00,Wunderground v.1.15,2013-09-18 02:37:00,
2013-09-17 22:47:00,44.3,42.7,30.04,ESE,117,0.0,0.0,94,0.00,,,0.00,Wunderground v.1.15,2013-09-18 02:47:00,
2013-09-17 22:57:00,43.9,42.3,30.04,ESE,117,0.0,0.0,94,0.00,,,0.00,Wunderground v.1.15,2013-09-18 02:57:00,
2013-09-17 23:07:00,43.5,41.9,30.03,ESE,117,0.0,0.0,94,0.00,,,0.00,Wunderground v.1.15,2013-09-18 03:07:00,
2013-09-17 23:16:00,43.3,41.7,30.03,ESE,117,0.0,0.0,94,0.00,,,0.00,Wunderground v.1.15,2013-09-18 03:16:00,
2013-09-17 23:22:00,43.1,41.5,30.03,ESE,117,0.0,0.0,94,0.00,,,0.00,Wunderground v.1.15,2013-09-18 03:22:00,
2013-09-17 23:27:00,43.1,41.8,30.03,ESE,117,0.0,0.0,95,0.00,,,0.00,Wunderground v.1.15,2013-09-18 03:27:00,
2013-09-17 23:37:00,43.1,41.8,30.03,ESE,117,0.0,0.0,95,0.00,,,0.00,Wunderground v.1.15,2013-09-18 03:37:00,
2013-09-17 23:47:00,43.4,42.3,30.03,ESE,117,0.0,0.0,96,0.00,,,0.00,Wunderground v.1.15,2013-09-18 03:47:00,
2013-09-17 23:52:00,43.5,42.4,30.03,ESE,117,0.0,0.0,96,0.00,,,0.00,Wunderground v.1.15,2013-09-18 03:52:00,